Time;durP1;ratioP1;P1;durP2;ratioP2;P2;SDS_P1;SDS_P2;PMS_P1;PMS_P2;Temp;Humidity;BMP_temperature;BMP_pressure;BME280_temperature;BME280_humidity;BME280_pressure;Samples;Min_cycle;Max_cycle;Signal;HPM_P1;HPM_P2
2023/09/04 00:01:06;;;;;;;;;;;20.90;86.60;;;;;;5056372;28;19956;-70
2023/09/04 00:03:31;;;;;;;;;;;20.90;86.60;;;;;;5056286;28;20374;-69
2023/09/04 00:05:57;;;;;;;;;;;20.90;86.60;;;;;;5055913;28;19916;-69
2023/09/04 00:08:23;;;;;;;;;;;20.90;86.60;;;;;;5056117;28;19909;-69
2023/09/04 00:10:49;;;;;;;;;;;20.90;86.60;;;;;;5055997;28;19915;-68
2023/09/04 00:13:14;;;;;;;;;;;20.90;86.60;;;;;;5055978;28;20332;-66
2023/09/04 00:15:40;;;;;;;;;;;20.90;86.60;;;;;;5055544;28;19913;-69
2023/09/04 00:18:06;;;;;;;;;;;20.90;86.60;;;;;;5055583;28;19917;-68
2023/09/04 00:20:32;;;;;;;;;;;20.90;86.50;;;;;;5055609;28;19912;-70
2023/09/04 00:22:57;;;;;;;;;;;20.90;86.60;;;;;;5055800;28;20275;-70
2023/09/04 00:25:23;;;;;;;;;;;20.90;86.50;;;;;;5055738;28;19975;-70
2023/09/04 00:27:48;;;;;;;;;;;20.90;86.60;;;;;;5056029;28;20367;-70
2023/09/04 00:30:14;;;;;;;;;;;20.90;86.50;;;;;;5055685;28;19908;-70
2023/09/04 00:32:39;;;;;;;;;;;20.90;87.00;;;;;;5055924;28;19909;-70
2023/09/04 00:35:05;;;;;;;;;;;20.90;86.50;;;;;;5055217;28;19999;-70
2023/09/04 00:37:31;;;;;;;;;;;20.90;86.50;;;;;;5055314;28;19920;-71
2023/09/04 00:39:56;;;;;;;;;;;20.90;86.50;;;;;;5054340;28;19909;-71
2023/09/04 00:42:22;;;;;;;;;;;20.90;86.60;;;;;;5055424;28;19909;-70
2023/09/04 00:44:50;;;;;;;;;;;20.90;86.50;;;;;;5055398;28;20351;-70
2023/09/04 00:47:17;;;;;;;;;;;20.90;86.50;;;;;;5055340;28;19970;-68
2023/09/04 00:49:43;;;;;;;;;;;20.90;86.60;;;;;;5055033;28;19920;-71
2023/09/04 00:52:10;;;;;;;;;;;20.90;86.50;;;;;;5054975;28;20390;-71
2023/09/04 00:54:36;;;;;;;;;;;20.90;86.50;;;;;;5055122;28;19975;-70
2023/09/04 00:57:03;;;;;;;;;;;20.90;86.50;;;;;;5055216;28;19913;-72
2023/09/04 00:59:29;;;;;;;;;;;20.90;86.50;;;;;;5055094;28;19908;-70
2023/09/04 01:01:56;;;;;;;;;;;20.90;86.50;;;;;;5055049;28;19919;-70
2023/09/04 01:04:22;;;;;;;;;;;20.90;86.50;;;;;;5055038;28;20007;-70
2023/09/04 01:06:47;;;;;;;;;;;20.90;86.50;;;;;;5037071;28;20398;-70
2023/09/04 01:09:12;;;;;;;;;;;20.90;86.50;;;;;;5054921;28;20253;-70
2023/09/04 01:11:47;;;;;;;;;;;20.90;86.50;;;;;;5055176;28;19909;-70
2023/09/04 01:14:16;;;;;;;;;;;20.90;86.50;;;;;;5054867;28;19908;-70
2023/09/04 01:16:41;;;;;;;;;;;20.90;86.50;;;;;;5054398;28;19912;-70
2023/09/04 01:19:10;;;;;;;;;;;20.90;86.50;;;;;;5054447;28;20391;-68
2023/09/04 01:21:36;;;;;;;;;;;20.90;86.50;;;;;;5054698;28;20389;-68
2023/09/04 01:24:02;;;;;;;;;;;20.90;86.50;;;;;;5054622;28;19931;-69
2023/09/04 01:26:33;;;;;;;;;;;20.90;86.50;;;;;;5054311;28;20003;-69
2023/09/04 01:29:07;;;;;;;;;;;20.90;86.50;;;;;;5054312;28;20383;-68
2023/09/04 01:31:35;;;;;;;;;;;20.90;86.50;;;;;;5054551;28;20272;-69
2023/09/04 01:34:03;;;;;;;;;;;20.90;86.50;;;;;;5054251;28;19915;-70
2023/09/04 01:36:31;;;;;;;;;;;20.90;86.50;;;;;;5054407;28;19913;-70
2023/09/04 01:38:57;;;;;;;;;;;20.90;86.50;;;;;;5054050;28;19913;-72
2023/09/04 01:41:22;;;;;;;;;;;20.90;86.50;;;;;;5054379;28;19919;-71
2023/09/04 01:43:48;;;;;;;;;;;20.90;86.50;;;;;;5054300;28;19940;-69
2023/09/04 01:46:13;;;;;;;;;;;20.90;86.50;;;;;;5053856;28;19974;-71
2023/09/04 01:48:39;;;;;;;;;;;20.90;86.50;;;;;;5053878;28;19909;-72
2023/09/04 01:51:04;;;;;;;;;;;20.90;86.50;;;;;;5053804;28;20398;-70
2023/09/04 01:53:30;;;;;;;;;;;20.90;86.50;;;;;;5054163;28;19909;-69
2023/09/04 01:55:56;;;;;;;;;;;20.90;86.50;;;;;;5054002;28;19913;-71
2023/09/04 01:58:21;;;;;;;;;;;20.90;86.50;;;;;;5054098;28;19920;-71
2023/09/04 02:00:47;;;;;;;;;;;20.90;86.50;;;;;;5036176;28;19909;-70
2023/09/04 02:03:13;;;;;;;;;;;20.90;86.50;;;;;;5053740;28;19909;-71
2023/09/04 02:05:39;;;;;;;;;;;20.90;86.50;;;;;;5053683;28;19955;-71
2023/09/04 02:08:05;;;;;;;;;;;20.90;86.50;;;;;;5053978;28;20378;-71
2023/09/04 02:10:33;;;;;;;;;;;20.90;86.50;;;;;;5053968;28;19963;-71
2023/09/04 02:12:59;;;;;;;;;;;20.90;86.50;;;;;;5053881;28;19909;-72
2023/09/04 02:15:24;;;;;;;;;;;20.90;86.50;;;;;;5035878;28;19970;-71
2023/09/04 02:17:51;;;;;;;;;;;20.90;86.50;;;;;;5053778;28;19920;-71
2023/09/04 02:20:17;;;;;;;;;;;20.90;86.50;;;;;;5053522;28;19909;-66
2023/09/04 02:22:43;;;;;;;;;;;20.90;86.50;;;;;;5053520;28;19913;-71
2023/09/04 02:25:09;;;;;;;;;;;20.90;86.50;;;;;;5053690;28;19978;-71
2023/09/04 02:27:34;;;;;;;;;;;20.90;86.50;;;;;;5053773;28;20332;-71
2023/09/04 02:30:02;;;;;;;;;;;20.90;86.50;;;;;;5053663;28;19934;-71
2023/09/04 02:32:28;;;;;;;;;;;20.90;86.50;;;;;;5053627;28;20003;-70
2023/09/04 02:34:53;;;;;;;;;;;20.90;86.50;;;;;;5053558;28;20332;-71
2023/09/04 02:37:19;;;;;;;;;;;20.90;86.50;;;;;;5053344;28;19913;-69
2023/09/04 02:39:44;;;;;;;;;;;20.90;86.50;;;;;;5053513;28;19913;-70
2023/09/04 02:42:10;;;;;;;;;;;20.90;86.50;;;;;;5053327;28;19994;-70
2023/09/04 02:44:35;;;;;;;;;;;20.90;86.50;;;;;;5053582;28;19909;-72
2023/09/04 02:47:01;;;;;;;;;;;20.90;86.50;;;;;;5053575;28;20383;-72
2023/09/04 02:49:26;;;;;;;;;;;20.90;86.50;;;;;;5053430;28;19974;-72
2023/09/04 02:51:51;;;;;;;;;;;20.90;87.00;;;;;;5053420;28;19915;-71
2023/09/04 02:54:17;;;;;;;;;;;20.90;86.50;;;;;;5053795;28;19960;-72
2023/09/04 02:56:42;;;;;;;;;;;20.90;86.50;;;;;;5053316;28;20384;-72
2023/09/04 02:59:08;;;;;;;;;;;20.90;86.50;;;;;;5053445;28;19943;-71
2023/09/04 03:01:34;;;;;;;;;;;20.90;86.50;;;;;;5053216;28;19909;-72
2023/09/04 03:03:59;;;;;;;;;;;20.90;86.50;;;;;;5057379;28;19934;-71
2023/09/04 03:06:25;;;;;;;;;;;20.90;86.50;;;;;;5057334;28;19926;-72
2023/09/04 03:08:50;;;;;;;;;;;20.90;86.50;;;;;;5056939;28;19913;-72
2023/09/04 03:11:16;;;;;;;;;;;20.90;86.50;;;;;;5056896;28;20007;-72
2023/09/04 03:13:41;;;;;;;;;;;20.90;86.50;;;;;;5056825;28;19971;-71
2023/09/04 03:16:07;;;;;;;;;;;20.90;86.50;;;;;;5057064;28;19919;-64
2023/09/04 03:18:33;;;;;;;;;;;20.90;86.50;;;;;;5056788;28;19913;-71
2023/09/04 03:20:59;;;;;;;;;;;20.90;86.50;;;;;;5057386;28;19908;-71
2023/09/04 03:23:24;;;;;;;;;;;20.90;86.50;;;;;;5056751;28;20265;-71
2023/09/04 03:25:49;;;;;;;;;;;20.80;86.50;;;;;;5056938;28;19915;-70
2023/09/04 03:28:15;;;;;;;;;;;20.90;86.60;;;;;;5056981;28;20336;-71
2023/09/04 03:30:41;;;;;;;;;;;20.90;86.50;;;;;;5057175;28;19952;-70
2023/09/04 03:33:07;;;;;;;;;;;20.90;86.50;;;;;;5056481;28;19956;-70
2023/09/04 03:35:33;;;;;;;;;;;20.90;86.50;;;;;;5056638;28;19956;-71
2023/09/04 03:37:58;;;;;;;;;;;20.90;87.00;;;;;;5056472;28;19960;-71
2023/09/04 03:40:24;;;;;;;;;;;20.90;86.60;;;;;;5056464;28;19970;-71
2023/09/04 03:42:53;;;;;;;;;;;20.90;86.50;;;;;;5056725;28;19909;-70
2023/09/04 03:45:19;;;;;;;;;;;20.80;86.50;;;;;;5056363;28;19909;-71
2023/09/04 03:47:45;;;;;;;;;;;20.90;86.50;;;;;;5056612;28;19982;-72
2023/09/04 03:50:11;;;;;;;;;;;20.90;86.50;;;;;;5055990;28;20383;-72
2023/09/04 03:52:38;;;;;;;;;;;20.90;86.60;;;;;;5038657;28;19931;-72
2023/09/04 03:55:04;;;;;;;;;;;20.90;86.50;;;;;;5056097;28;19956;-72
2023/09/04 03:57:29;;;;;;;;;;;20.80;86.50;;;;;;5038467;28;19913;-72
2023/09/04 03:59:58;;;;;;;;;;;20.80;86.50;;;;;;5056337;28;19935;-73
2023/09/04 04:02:23;;;;;;;;;;;20.80;86.50;;;;;;5056240;28;19909;-72
2023/09/04 04:04:52;;;;;;;;;;;20.80;86.50;;;;;;5056069;28;19916;-71
2023/09/04 04:07:17;;;;;;;;;;;20.80;86.50;;;;;;5056213;28;19992;-71
2023/09/04 04:09:44;;;;;;;;;;;20.90;86.60;;;;;;5055782;28;20522;-71
2023/09/04 04:12:10;;;;;;;;;;;20.80;86.50;;;;;;5055711;28;20336;-70
2023/09/04 04:14:35;;;;;;;;;;;20.80;86.50;;;;;;5054413;28;19963;-71
2023/09/04 04:17:01;;;;;;;;;;;20.90;86.60;;;;;;5055528;28;19913;-71
2023/09/04 04:19:27;;;;;;;;;;;20.90;86.60;;;;;;5056189;28;19909;-72
2023/09/04 04:21:52;;;;;;;;;;;20.80;86.50;;;;;;5055711;28;19909;-71
2023/09/04 04:24:19;;;;;;;;;;;20.90;86.60;;;;;;5055839;28;19909;-72
2023/09/04 04:26:45;;;;;;;;;;;20.80;86.50;;;;;;5055819;28;20036;-72
2023/09/04 04:29:10;;;;;;;;;;;20.80;86.50;;;;;;5055813;28;19915;-71
2023/09/04 04:31:36;;;;;;;;;;;20.80;86.50;;;;;;5055454;28;19908;-72
2023/09/04 04:34:02;;;;;;;;;;;20.90;86.60;;;;;;5055607;28;19956;-72
2023/09/04 04:36:27;;;;;;;;;;;20.80;86.50;;;;;;5055530;28;19983;-72
2023/09/04 04:38:53;;;;;;;;;;;20.90;86.60;;;;;;5037640;28;19920;-71
2023/09/04 04:41:18;;;;;;;;;;;20.80;86.60;;;;;;5055150;28;19954;-71
2023/09/04 04:43:44;;;;;;;;;;;20.80;86.60;;;;;;5055381;28;20003;-72
2023/09/04 04:46:12;;;;;;;;;;;20.80;86.60;;;;;;5055157;28;20215;-64
2023/09/04 04:48:38;;;;;;;;;;;20.80;86.60;;;;;;5055442;28;19909;-72
2023/09/04 04:51:03;;;;;;;;;;;20.80;86.60;;;;;;5055637;28;20271;-71
2023/09/04 04:53:29;;;;;;;;;;;20.80;86.70;;;;;;5055329;28;20274;-71
2023/09/04 04:55:55;;;;;;;;;;;20.80;86.60;;;;;;5037329;28;19920;-71
2023/09/04 04:58:21;;;;;;;;;;;20.80;86.70;;;;;;5054856;28;20383;-68
2023/09/04 05:00:46;;;;;;;;;;;20.80;86.70;;;;;;5055202;28;19916;-72
2023/09/04 05:03:12;;;;;;;;;;;20.80;86.70;;;;;;5054745;28;19916;-71
2023/09/04 05:05:42;;;;;;;;;;;20.80;86.70;;;;;;5055038;28;19908;-71
2023/09/04 05:08:08;;;;;;;;;;;20.80;86.70;;;;;;5055031;28;19916;-71
2023/09/04 05:10:33;;;;;;;;;;;20.80;86.70;;;;;;5054702;28;19909;-71
2023/09/04 05:12:59;;;;;;;;;;;20.80;86.70;;;;;;5054777;28;19955;-70
2023/09/04 05:15:24;;;;;;;;;;;20.80;86.70;;;;;;5054705;28;19917;-70
2023/09/04 05:17:50;;;;;;;;;;;20.80;86.70;;;;;;5054400;28;19919;-70
2023/09/04 05:20:15;;;;;;;;;;;20.80;86.70;;;;;;5054585;28;19909;-71
2023/09/04 05:22:40;;;;;;;;;;;20.80;86.70;;;;;;5054917;28;20007;-66
2023/09/04 05:25:07;;;;;;;;;;;20.80;86.70;;;;;;5054028;28;20364;-70
2023/09/04 05:27:33;;;;;;;;;;;20.80;86.70;;;;;;5054352;28;19909;-71
2023/09/04 05:29:58;;;;;;;;;;;20.80;86.70;;;;;;5054098;28;19909;-71
2023/09/04 05:32:24;;;;;;;;;;;20.80;86.70;;;;;;5054361;28;19952;-72
2023/09/04 05:34:53;;;;;;;;;;;20.80;86.70;;;;;;5054266;28;19955;-71
2023/09/04 05:37:18;;;;;;;;;;;20.80;86.70;;;;;;5054217;28;20375;-71
2023/09/04 05:39:44;;;;;;;;;;;20.80;86.70;;;;;;5054095;28;19916;-71
2023/09/04 05:42:09;;;;;;;;;;;20.80;86.70;;;;;;5054561;28;19909;-70
2023/09/04 05:44:34;;;;;;;;;;;20.80;86.70;;;;;;5054068;28;19970;-70
2023/09/04 05:47:00;;;;;;;;;;;20.90;86.80;;;;;;5053853;28;19927;-71
2023/09/04 05:49:26;;;;;;;;;;;20.80;86.80;;;;;;5053784;28;20271;-71
2023/09/04 05:51:52;;;;;;;;;;;20.80;86.80;;;;;;5054086;28;19909;-71
2023/09/04 05:54:18;;;;;;;;;;;20.80;86.70;;;;;;5053876;28;20347;-70
2023/09/04 05:56:43;;;;;;;;;;;20.80;86.70;;;;;;5053593;28;19920;-70
2023/09/04 05:59:09;;;;;;;;;;;20.90;86.80;;;;;;5036036;28;20423;-70
2023/09/04 06:01:34;;;;;;;;;;;20.80;86.70;;;;;;5053964;28;19917;-72
2023/09/04 06:04:00;;;;;;;;;;;20.80;86.70;;;;;;5054356;28;19909;-70
2023/09/04 06:06:25;;;;;;;;;;;20.80;86.70;;;;;;5054223;28;19909;-71
2023/09/04 06:08:51;;;;;;;;;;;20.80;86.80;;;;;;5053480;28;19913;-71
2023/09/04 06:11:17;;;;;;;;;;;20.80;86.80;;;;;;5053697;28;19916;-70
2023/09/04 06:13:42;;;;;;;;;;;20.80;86.80;;;;;;5035959;28;20380;-70
2023/09/04 06:16:08;;;;;;;;;;;20.80;86.80;;;;;;5053863;28;19945;-71
2023/09/04 06:18:35;;;;;;;;;;;20.80;86.80;;;;;;5053442;28;19963;-71
2023/09/04 06:21:00;;;;;;;;;;;20.80;86.90;;;;;;5053350;28;19913;-71
2023/09/04 06:23:26;;;;;;;;;;;20.80;86.90;;;;;;5053341;28;19915;-71
2023/09/04 06:25:51;;;;;;;;;;;20.80;86.90;;;;;;5053567;28;20344;-71
2023/09/04 06:28:17;;;;;;;;;;;20.80;86.90;;;;;;5053182;28;19909;-71
2023/09/04 06:30:44;;;;;;;;;;;20.80;86.90;;;;;;5053273;28;19931;-67
2023/09/04 06:33:10;;;;;;;;;;;20.90;87.00;;;;;;5053667;28;19909;-71
2023/09/04 06:35:35;;;;;;;;;;;20.80;86.90;;;;;;5053622;28;20282;-71
2023/09/04 06:38:01;;;;;;;;;;;20.80;86.90;;;;;;5055834;28;19948;-71
2023/09/04 06:40:26;;;;;;;;;;;20.80;86.90;;;;;;5057252;28;19909;-70
2023/09/04 06:42:55;;;;;;;;;;;20.80;86.90;;;;;;5039770;28;19912;-71
2023/09/04 06:45:21;;;;;;;;;;;20.80;86.90;;;;;;5057330;28;19909;-71
2023/09/04 06:47:46;;;;;;;;;;;20.80;86.90;;;;;;5057626;28;19927;-71
2023/09/04 06:50:12;;;;;;;;;;;20.80;86.90;;;;;;5057125;28;19909;-71
2023/09/04 06:52:37;;;;;;;;;;;20.80;86.90;;;;;;5057009;28;19908;-71
2023/09/04 06:55:04;;;;;;;;;;;20.80;86.90;;;;;;5056840;28;19916;-71
2023/09/04 06:57:29;;;;;;;;;;;20.80;87.50;;;;;;5056888;28;19923;-71
2023/09/04 06:59:55;;;;;;;;;;;20.80;86.90;;;;;;5057200;28;19912;-71
2023/09/04 07:02:20;;;;;;;;;;;20.80;86.90;;;;;;5057022;28;20319;-70
2023/09/04 07:04:46;;;;;;;;;;;20.80;86.90;;;;;;5056896;28;19909;-70
2023/09/04 07:07:11;;;;;;;;;;;20.80;86.90;;;;;;5056875;28;19952;-71
2023/09/04 07:09:37;;;;;;;;;;;20.80;86.90;;;;;;5057097;28;19909;-71
2023/09/04 07:12:03;;;;;;;;;;;20.80;86.90;;;;;;5057020;28;20000;-71
2023/09/04 07:14:28;;;;;;;;;;;20.80;86.90;;;;;;5056636;28;20387;-71
2023/09/04 07:16:54;;;;;;;;;;;20.80;86.90;;;;;;5056654;28;19913;-68
2023/09/04 07:19:19;;;;;;;;;;;20.80;87.00;;;;;;5039158;28;20313;-72
2023/09/04 07:21:45;;;;;;;;;;;20.80;86.90;;;;;;5056920;28;19913;-71
2023/09/04 07:24:10;;;;;;;;;;;20.80;86.90;;;;;;5056782;28;19909;-71
2023/09/04 07:26:36;;;;;;;;;;;20.80;87.00;;;;;;5056976;28;20260;-72
2023/09/04 07:29:01;;;;;;;;;;;20.80;87.00;;;;;;5056872;28;19909;-72
2023/09/04 07:31:28;;;;;;;;;;;20.80;86.90;;;;;;5038797;28;19909;-71
2023/09/04 07:33:54;;;;;;;;;;;20.80;87.00;;;;;;5056263;28;20007;-71
2023/09/04 07:36:20;;;;;;;;;;;20.80;87.00;;;;;;5056269;28;19919;-71
2023/09/04 07:38:45;;;;;;;;;;;20.80;87.00;;;;;;5056328;28;20007;-70
2023/09/04 07:41:11;;;;;;;;;;;20.80;87.00;;;;;;5056122;28;19909;-71
2023/09/04 07:43:36;;;;;;;;;;;20.80;87.00;;;;;;5056221;28;19932;-71
2023/09/04 07:46:02;;;;;;;;;;;20.80;87.00;;;;;;5056644;28;19913;-71
2023/09/04 07:48:28;;;;;;;;;;;20.80;87.00;;;;;;5056294;28;19909;-71
2023/09/04 07:50:54;;;;;;;;;;;20.80;87.00;;;;;;5056546;28;19951;-71
2023/09/04 07:53:20;;;;;;;;;;;20.80;87.00;;;;;;5056284;28;20367;-71
2023/09/04 07:55:46;;;;;;;;;;;20.80;87.00;;;;;;5056004;28;19940;-70
2023/09/04 07:58:11;;;;;;;;;;;20.80;87.00;;;;;;5056028;28;19913;-71
2023/09/04 08:00:42;;;;;;;;;;;20.80;87.00;;;;;;5056123;28;19916;-71
2023/09/04 08:03:07;;;;;;;;;;;20.80;87.50;;;;;;5056570;28;20310;-71
2023/09/04 08:05:33;;;;;;;;;;;20.80;87.00;;;;;;5055789;28;19913;-72
2023/09/04 08:07:58;;;;;;;;;;;20.80;87.00;;;;;;5055793;28;19952;-71
2023/09/04 08:10:24;;;;;;;;;;;20.80;87.00;;;;;;5038066;28;19949;-72
2023/09/04 08:12:49;;;;;;;;;;;20.80;87.00;;;;;;5055800;28;19908;-71
2023/09/04 08:15:15;;;;;;;;;;;20.80;87.10;;;;;;5056010;28;19917;-71
2023/09/04 08:17:41;;;;;;;;;;;20.80;87.00;;;;;;5055638;28;19916;-72
2023/09/04 08:20:07;;;;;;;;;;;20.80;87.00;;;;;;5055829;28;19963;-71
2023/09/04 08:22:32;;;;;;;;;;;20.80;87.10;;;;;;5055486;28;20283;-71
2023/09/04 08:24:58;;;;;;;;;;;20.80;87.10;;;;;;5055362;28;19932;-71
2023/09/04 08:27:23;;;;;;;;;;;20.80;87.10;;;;;;5055344;28;19915;-72
2023/09/04 08:29:50;;;;;;;;;;;20.80;87.10;;;;;;5037809;28;19909;-71
2023/09/04 08:32:15;;;;;;;;;;;20.80;87.10;;;;;;5055372;28;20367;-72
2023/09/04 08:34:41;;;;;;;;;;;20.80;87.10;;;;;;5055553;28;19915;-71
2023/09/04 08:37:06;;;;;;;;;;;20.80;87.10;;;;;;5037541;28;19940;-71
2023/09/04 08:39:32;;;;;;;;;;;20.80;87.10;;;;;;5055188;28;19909;-72
2023/09/04 08:41:58;;;;;;;;;;;20.80;87.10;;;;;;5055211;28;19909;-71
2023/09/04 08:44:24;;;;;;;;;;;20.80;87.10;;;;;;5055245;28;19909;-71
2023/09/04 08:46:50;;;;;;;;;;;20.80;87.10;;;;;;5055166;28;19921;-71
2023/09/04 08:49:18;;;;;;;;;;;20.80;87.10;;;;;;5054896;28;19967;-72
2023/09/04 08:51:44;;;;;;;;;;;20.80;87.20;;;;;;5055159;28;19978;-72
2023/09/04 08:54:10;;;;;;;;;;;20.80;87.10;;;;;;5055103;28;20360;-71
2023/09/04 08:56:36;;;;;;;;;;;20.80;87.20;;;;;;5055007;28;19919;-72
2023/09/04 08:59:02;;;;;;;;;;;20.80;87.20;;;;;;5054635;28;20007;-72
2023/09/04 09:01:30;;;;;;;;;;;20.80;87.20;;;;;;5054633;28;19951;-71
2023/09/04 09:03:56;;;;;;;;;;;20.80;87.20;;;;;;5037497;28;20352;-72
2023/09/04 09:06:22;;;;;;;;;;;20.80;87.20;;;;;;5054521;28;19956;-72
2023/09/04 09:08:49;;;;;;;;;;;20.80;87.20;;;;;;5054838;28;19943;-71
2023/09/04 09:11:15;;;;;;;;;;;20.80;87.20;;;;;;5054662;28;19913;-72
2023/09/04 09:13:41;;;;;;;;;;;20.80;87.20;;;;;;5036860;28;20046;-72
2023/09/04 09:16:06;;;;;;;;;;;20.80;87.30;;;;;;5054321;28;19917;-72
2023/09/04 09:18:37;;;;;;;;;;;20.80;87.20;;;;;;5054240;28;19913;-72
2023/09/04 09:21:19;;;;;;;;;;;20.80;87.30;;;;;;5054693;28;19916;-72
2023/09/04 09:23:45;;;;;;;;;;;20.70;87.20;;;;;;5054493;28;19916;-72
2023/09/04 09:26:10;;;;;;;;;;;20.80;87.30;;;;;;5054151;28;19909;-73
2023/09/04 09:28:36;;;;;;;;;;;20.80;87.30;;;;;;5054327;28;19955;-71
2023/09/04 09:31:01;;;;;;;;;;;20.80;87.30;;;;;;5036523;28;19917;-72
2023/09/04 09:33:27;;;;;;;;;;;20.70;87.20;;;;;;5054884;28;19916;-75
2023/09/04 09:35:54;;;;;;;;;;;20.80;87.30;;;;;;5054284;28;20263;-73
2023/09/04 09:38:20;;;;;;;;;;;20.70;87.30;;;;;;5054439;28;20011;-72
2023/09/04 09:40:46;;;;;;;;;;;20.80;87.40;;;;;;5054217;28;20348;-75
2023/09/04 09:43:12;;;;;;;;;;;20.80;87.30;;;;;;5054310;28;19952;-74
2023/09/04 09:45:37;;;;;;;;;;;20.70;87.30;;;;;;5053917;28;19938;-71
2023/09/04 09:48:12;;;;;;;;;;;20.70;87.30;;;;;;5053990;28;20456;-71
2023/09/04 09:50:38;;;;;;;;;;;20.70;87.30;;;;;;5054081;28;20348;-70
2023/09/04 09:53:03;;;;;;;;;;;20.70;87.30;;;;;;5053979;28;19913;-71
2023/09/04 09:55:30;;;;;;;;;;;20.70;87.40;;;;;;5053523;28;19917;-72
2023/09/04 09:57:56;;;;;;;;;;;20.80;87.40;;;;;;5054155;28;19913;-71
2023/09/04 10:00:22;;;;;;;;;;;20.70;87.40;;;;;;5054397;28;20395;-70
2023/09/04 10:02:48;;;;;;;;;;;20.70;87.30;;;;;;5054102;28;19944;-71
2023/09/04 10:05:13;;;;;;;;;;;20.70;87.30;;;;;;5054087;28;20010;-71
2023/09/04 10:07:39;;;;;;;;;;;20.80;87.40;;;;;;5053708;28;20360;-76
2023/09/04 10:10:06;;;;;;;;;;;20.70;87.40;;;;;;5053927;28;19909;-74
2023/09/04 10:12:31;;;;;;;;;;;20.80;87.40;;;;;;5053510;28;19909;-70
2023/09/04 10:14:58;;;;;;;;;;;20.70;87.40;;;;;;5053511;28;20083;-71
2023/09/04 10:17:32;;;;;;;;;;;20.70;87.40;;;;;;5053852;28;19917;-70
2023/09/04 10:20:01;;;;;;;;;;;20.70;87.40;;;;;;5053822;28;19909;-70
2023/09/04 10:22:30;;;;;;;;;;;20.70;87.40;;;;;;5053510;28;20372;-70
2023/09/04 10:25:00;;;;;;;;;;;20.80;87.50;;;;;;5053585;28;19913;-72
2023/09/04 10:27:28;;;;;;;;;;;20.80;87.50;;;;;;5053554;28;19963;-74
2023/09/04 10:29:58;;;;;;;;;;;20.80;87.50;;;;;;5053480;28;19909;-72
2023/09/04 10:32:24;;;;;;;;;;;20.70;87.40;;;;;;5053686;28;20356;-72
2023/09/04 10:34:49;;;;;;;;;;;20.80;87.50;;;;;;5053182;28;19916;-70
2023/09/04 10:37:15;;;;;;;;;;;20.80;87.50;;;;;;5053237;28;19917;-72
2023/09/04 10:39:41;;;;;;;;;;;20.80;87.50;;;;;;5053880;28;20355;-73
2023/09/04 10:42:07;;;;;;;;;;;20.80;87.50;;;;;;5053263;28;19909;-73
2023/09/04 10:44:49;;;;;;;;;;;20.80;87.50;;;;;;5053169;28;19931;-74
2023/09/04 10:47:15;;;;;;;;;;;20.70;87.50;;;;;;5053245;28;20323;-73
2023/09/04 10:49:44;;;;;;;;;;;20.70;87.50;;;;;;5053416;28;19909;-73
2023/09/04 10:52:10;;;;;;;;;;;20.70;87.50;;;;;;5053430;28;19951;-72
2023/09/04 10:54:35;;;;;;;;;;;20.80;87.60;;;;;;5053354;28;19913;-71
2023/09/04 10:57:05;;;;;;;;;;;20.70;87.50;;;;;;5053105;28;20326;-71
2023/09/04 10:59:50;;;;;;;;;;;20.70;87.50;;;;;;5053233;28;19956;-71
2023/09/04 11:02:30;;;;;;;;;;;20.70;87.40;;;;;;5053207;28;19909;-72
2023/09/04 11:04:55;;;;;;;;;;;20.80;87.60;;;;;;5053252;28;19996;-72
2023/09/04 11:07:21;;;;;;;;;;;20.80;87.60;;;;;;5052998;28;19956;-72
2023/09/04 11:10:06;;;;;;;;;;;20.70;87.50;;;;;;5052759;28;19916;-73
2023/09/04 11:12:34;;;;;;;;;;;20.70;87.50;;;;;;5041979;28;19931;-73
2023/09/04 11:15:00;;;;;;;;;;;20.70;87.50;;;;;;5052807;28;19931;-73
2023/09/04 11:17:29;;;;;;;;;;;20.70;87.50;;;;;;5035244;28;19913;-74
2023/09/04 11:19:55;;;;;;;;;;;20.80;87.60;;;;;;5052768;28;20379;-73
2023/09/04 11:22:22;;;;;;;;;;;20.70;87.60;;;;;;5053069;28;19955;-71
2023/09/04 11:24:47;;;;;;;;;;;20.70;87.60;;;;;;5056618;28;19916;-71
2023/09/04 11:27:12;;;;;;;;;;;20.80;87.60;;;;;;5056816;28;20007;-70
2023/09/04 11:29:38;;;;;;;;;;;20.70;87.60;;;;;;5056385;28;19916;-70
2023/09/04 11:32:05;;;;;;;;;;;20.70;87.60;;;;;;5056895;28;19909;-70
2023/09/04 11:34:31;;;;;;;;;;;20.80;87.70;;;;;;5056337;28;20003;-71
2023/09/04 11:36:56;;;;;;;;;;;20.70;87.60;;;;;;5056297;28;20051;-71
2023/09/04 11:39:22;;;;;;;;;;;20.70;87.60;;;;;;5056601;28;19920;-70
2023/09/04 11:41:49;;;;;;;;;;;20.70;87.60;;;;;;5056414;28;20431;-71
2023/09/04 11:44:15;;;;;;;;;;;20.70;87.60;;;;;;5056571;28;20005;-71
2023/09/04 11:46:40;;;;;;;;;;;20.70;87.70;;;;;;5049551;28;19924;-71
2023/09/04 11:49:06;;;;;;;;;;;20.70;87.70;;;;;;5075147;28;20336;-70
2023/09/04 11:51:32;;;;;;;;;;;20.70;87.60;;;;;;5076146;28;19996;-70
2023/09/04 11:53:57;;;;;;;;;;;20.70;87.70;;;;;;5074862;28;19965;-71
2023/09/04 11:56:23;;;;;;;;;;;20.70;87.70;;;;;;5076423;28;19967;-70
2023/09/04 11:58:48;;;;;;;;;;;20.80;87.60;;;;;;5076004;28;20375;-71
2023/09/04 12:01:14;;;;;;;;;;;20.70;87.60;;;;;;5075988;28;19908;-70
2023/09/04 12:03:40;;;;;;;;;;;20.70;87.70;;;;;;5076250;28;19954;-70
2023/09/04 12:06:06;;;;;;;;;;;20.70;87.60;;;;;;5076091;28;19917;-70
2023/09/04 12:08:32;;;;;;;;;;;20.70;87.70;;;;;;5075869;28;19915;-70
2023/09/04 12:10:57;;;;;;;;;;;20.70;87.60;;;;;;5075987;28;19910;-70
2023/09/04 12:13:23;;;;;;;;;;;20.70;87.70;;;;;;5076048;28;20267;-71
2023/09/04 12:15:48;;;;;;;;;;;20.80;87.70;;;;;;5074697;28;20354;-71
2023/09/04 12:18:14;;;;;;;;;;;20.80;87.70;;;;;;5075450;28;19913;-70
2023/09/04 12:20:40;;;;;;;;;;;20.70;87.60;;;;;;5075642;28;19908;-70
2023/09/04 12:23:06;;;;;;;;;;;20.70;87.70;;;;;;5076022;28;19920;-71
2023/09/04 12:25:38;;;;;;;;;;;20.70;88.20;;;;;;5075292;28;19908;-69
2023/09/04 12:28:07;;;;;;;;;;;20.70;87.70;;;;;;5075600;28;19909;-70
2023/09/04 12:30:33;;;;;;;;;;;20.80;87.80;;;;;;5075687;28;19909;-70
2023/09/04 12:32:59;;;;;;;;;;;20.70;87.70;;;;;;5074496;28;19915;-71
2023/09/04 12:35:24;;;;;;;;;;;20.70;87.70;;;;;;5074247;28;19969;-70
2023/09/04 12:37:52;;;;;;;;;;;20.70;87.70;;;;;;5075338;28;19912;-70
2023/09/04 12:40:18;;;;;;;;;;;20.70;87.80;;;;;;5075264;28;20394;-71
2023/09/04 12:42:44;;;;;;;;;;;20.70;87.80;;;;;;5075454;28;19908;-71
2023/09/04 12:45:09;;;;;;;;;;;20.70;87.80;;;;;;5074798;28;19916;-71
2023/09/04 12:47:35;;;;;;;;;;;20.70;87.80;;;;;;5060003;28;19929;-70
2023/09/04 12:50:00;;;;;;;;;;;20.80;87.80;;;;;;5055055;28;19913;-70
2023/09/04 12:52:26;;;;;;;;;;;20.80;87.90;;;;;;5054887;28;19908;-71
2023/09/04 12:54:51;;;;;;;;;;;20.70;87.80;;;;;;5055123;28;19912;-71
2023/09/04 12:57:17;;;;;;;;;;;20.70;87.80;;;;;;5055421;28;19923;-70
2023/09/04 12:59:42;;;;;;;;;;;20.70;87.80;;;;;;5054943;28;19913;-71
2023/09/04 13:02:09;;;;;;;;;;;20.70;87.80;;;;;;5053848;28;21569;-71
2023/09/04 13:04:35;;;;;;;;;;;20.70;87.70;;;;;;5054820;28;19913;-70
2023/09/04 13:07:01;;;;;;;;;;;20.70;87.70;;;;;;5054730;28;19995;-71
2023/09/04 13:09:26;;;;;;;;;;;20.70;87.80;;;;;;5054665;28;20327;-71
2023/09/04 13:11:55;;;;;;;;;;;20.70;87.80;;;;;;5054840;28;19915;-71
2023/09/04 13:14:21;;;;;;;;;;;20.80;87.80;;;;;;5054911;28;19944;-70
2023/09/04 13:16:46;;;;;;;;;;;20.70;87.90;;;;;;5054749;28;19956;-70
2023/09/04 13:19:13;;;;;;;;;;;20.80;87.90;;;;;;5053889;28;19912;-71
2023/09/04 13:21:39;;;;;;;;;;;20.70;87.90;;;;;;5054204;28;19908;-71
2023/09/04 13:24:05;;;;;;;;;;;20.70;87.90;;;;;;5054792;28;20041;-70
2023/09/04 13:26:30;;;;;;;;;;;20.80;88.00;;;;;;5054671;28;19909;-71
2023/09/04 13:28:56;;;;;;;;;;;20.70;87.90;;;;;;5036349;28;19912;-70
2023/09/04 13:31:21;;;;;;;;;;;20.80;88.00;;;;;;5054379;28;20358;-71
2023/09/04 13:33:47;;;;;;;;;;;20.80;88.00;;;;;;5054674;28;19909;-71
2023/09/04 13:36:12;;;;;;;;;;;20.70;87.90;;;;;;5036395;28;19913;-71
2023/09/04 13:38:38;;;;;;;;;;;20.70;88.00;;;;;;5036531;28;20275;-71
2023/09/04 13:41:04;;;;;;;;;;;20.70;87.90;;;;;;5053981;28;19963;-70
2023/09/04 13:43:30;;;;;;;;;;;20.70;88.00;;;;;;5053873;28;19909;-70
2023/09/04 13:45:55;;;;;;;;;;;20.70;88.00;;;;;;5053886;28;20245;-70
2023/09/04 13:48:21;;;;;;;;;;;20.70;88.00;;;;;;5054217;28;19948;-71
2023/09/04 13:50:47;;;;;;;;;;;20.70;88.00;;;;;;5053804;28;20364;-70
2023/09/04 13:53:13;;;;;;;;;;;20.70;88.00;;;;;;5054116;28;19963;-71
2023/09/04 13:55:38;;;;;;;;;;;20.70;88.00;;;;;;5053985;28;19916;-71
2023/09/04 13:58:04;;;;;;;;;;;20.70;88.00;;;;;;5054015;28;19939;-70
2023/09/04 14:00:30;;;;;;;;;;;20.70;88.10;;;;;;5053904;28;20240;-70
2023/09/04 14:02:55;;;;;;;;;;;20.70;88.10;;;;;;5054101;28;20110;-69
2023/09/04 14:05:22;;;;;;;;;;;20.70;88.00;;;;;;5053869;28;19909;-71
2023/09/04 14:07:47;;;;;;;;;;;20.70;88.10;;;;;;5053884;28;19931;-70
2023/09/04 14:10:13;;;;;;;;;;;20.70;88.10;;;;;;5053319;28;20351;-71